createdAt,value
2018-02-10T00:01:23.214Z,1013.86
2018-02-10T00:02:23.236Z,1013.89
2018-02-10T00:03:23.237Z,1013.91
2018-02-10T00:04:23.303Z,1013.96
2018-02-10T00:05:23.278Z,1013.96
2018-02-10T00:06:23.315Z,1013.92
2018-02-10T00:07:23.750Z,1013.94
2018-02-10T00:08:24.245Z,1013.99
2018-02-10T00:09:24.038Z,1013.99
2018-02-10T00:10:24.402Z,1014
2018-02-10T00:11:24.416Z,1013.96
2018-02-10T00:12:24.756Z,1013.97
2018-02-10T00:13:24.447Z,1013.96
2018-02-10T00:14:24.908Z,1013.99
2018-02-10T00:15:24.906Z,1013.95
2018-02-10T00:16:25.012Z,1013.97
2018-02-10T00:17:25.428Z,1013.94
2018-02-10T00:18:25.523Z,1013.93
2018-02-10T00:19:25.513Z,1013.96
2018-02-10T00:20:25.429Z,1013.99
2018-02-10T00:21:25.428Z,1013.96
2018-02-10T00:22:25.460Z,1014
2018-02-10T00:23:25.472Z,1014.05
2018-02-10T00:24:25.514Z,1014.03
2018-02-10T00:25:25.800Z,1014.03
2018-02-10T00:26:25.884Z,1014.05
2018-02-10T00:27:25.613Z,1014.02
2018-02-10T00:28:25.622Z,1014.03
2018-02-10T00:29:25.949Z,1014.1
2018-02-10T00:30:25.973Z,1014.01
2018-02-10T00:31:25.802Z,1014.05
2018-02-10T00:32:25.766Z,1014.02
2018-02-10T00:33:25.749Z,1014.04
2018-02-10T00:34:25.726Z,1014.05
2018-02-10T00:35:25.867Z,1014.03
2018-02-10T00:36:25.859Z,1014.07
2018-02-10T00:37:25.958Z,1014.04
2018-02-10T00:38:25.971Z,1014.07
2018-02-10T00:39:26.312Z,1014.04
2018-02-10T00:40:26.334Z,1014.02
2018-02-10T00:41:26.032Z,1014.11
2018-02-10T00:42:26.039Z,1014.1
2018-02-10T00:43:26.145Z,1014.07
2018-02-10T00:44:26.323Z,1014.04
2018-02-10T00:45:26.357Z,1014.05
2018-02-10T00:46:26.369Z,1014.07
2018-02-10T00:47:26.392Z,1014.11
2018-02-10T00:48:26.412Z,1014.05
2018-02-10T00:49:26.654Z,1014.07
2018-02-10T00:50:26.583Z,1014.09
2018-02-10T00:51:26.667Z,1014.07
2018-02-10T00:52:26.627Z,1014.08
2018-02-10T00:53:26.772Z,1014.09
2018-02-10T00:54:26.789Z,1014.08
2018-02-10T00:55:27.074Z,1014.13
2018-02-10T00:56:27.210Z,1014.09
2018-02-10T00:57:27.108Z,1014.11
2018-02-10T00:58:27.125Z,1014.14
2018-02-10T00:59:27.185Z,1014.09
2018-02-10T01:00:27.173Z,1014.12
2018-02-10T01:01:27.230Z,1014.1
2018-02-10T01:02:27.410Z,1014.13
2018-02-10T01:03:27.561Z,1014.12
2018-02-10T01:04:27.724Z,1014.12
2018-02-10T01:05:27.585Z,1014.06
2018-02-10T01:06:27.536Z,1014.06
2018-02-10T01:07:27.962Z,1014.05
2018-02-10T01:08:28.579Z,1014.06
2018-02-10T01:09:29.269Z,1014.08
2018-02-10T01:10:29.070Z,1014.02
2018-02-10T01:11:29.601Z,1014.06
2018-02-10T01:12:29.635Z,1014.04
2018-02-10T01:13:30.029Z,1014.02
2018-02-10T01:14:30.051Z,1014.01
2018-02-10T01:15:30.051Z,1014.03
2018-02-10T01:16:30.298Z,1013.98
2018-02-10T01:17:30.576Z,1013.96
2018-02-10T01:18:31.000Z,1013.97
2018-02-10T01:19:31.028Z,1013.99
2018-02-10T01:20:31.093Z,1014.02
2018-02-10T01:21:31.141Z,1014.02
2018-02-10T01:22:31.127Z,1014
2018-02-10T01:23:31.172Z,1013.99
2018-02-10T01:24:31.675Z,1013.98
2018-02-10T01:25:32.174Z,1013.97
2018-02-10T01:26:32.190Z,1014.01
2018-02-10T01:27:32.744Z,1014.04
2018-02-10T01:28:32.742Z,1014.01
2018-02-10T01:29:33.020Z,1014.11
2018-02-10T01:30:33.159Z,1014.02
2018-02-10T01:31:33.225Z,1014.04
2018-02-10T01:32:33.225Z,1014.05
2018-02-10T01:33:33.446Z,1014
2018-02-10T01:34:33.865Z,1014.05
2018-02-10T01:35:33.956Z,1014.06
2018-02-10T01:36:34.005Z,1014.04
2018-02-10T01:37:34.462Z,1014.02
2018-02-10T01:38:34.474Z,1014.02
2018-02-10T01:39:34.782Z,1014.05
2018-02-10T01:40:34.566Z,1014.04
2018-02-10T01:41:34.508Z,1014.08
2018-02-10T01:42:34.872Z,1014.03
2018-02-10T01:43:34.652Z,1014.03
2018-02-10T01:44:34.590Z,1013.99
2018-02-10T01:45:34.554Z,1013.98
2018-02-10T01:46:34.938Z,1014.06
2018-02-10T01:47:35.266Z,1013.97
2018-02-10T01:48:35.273Z,1014
2018-02-10T01:49:35.305Z,1013.96
2018-02-10T01:50:35.353Z,1014.07
2018-02-10T01:51:35.347Z,1014.01
2018-02-10T01:52:35.828Z,1014.05
2018-02-10T01:53:35.782Z,1013.98
2018-02-10T01:54:35.858Z,1014.03
2018-02-10T01:55:36.029Z,1014.02
2018-02-10T01:56:36.074Z,1014.04
2018-02-10T01:57:36.402Z,1014.05
2018-02-10T01:58:36.406Z,1014.04
2018-02-10T01:59:36.101Z,1014.08
2018-02-10T02:00:36.177Z,1014.02
2018-02-10T02:01:36.192Z,1014.06
2018-02-10T02:02:36.169Z,1014.01
2018-02-10T02:03:36.194Z,1014.05
2018-02-10T02:04:36.222Z,1014.04
2018-02-10T02:05:36.360Z,1014.04
2018-02-10T02:06:36.252Z,1014.04
2018-02-10T02:07:36.273Z,1013.97
2018-02-10T02:08:36.448Z,1013.99
2018-02-10T02:09:36.473Z,1013.98
2018-02-10T02:10:36.531Z,1013.96
2018-02-10T02:11:36.859Z,1013.94
2018-02-10T02:12:36.572Z,1014.01
2018-02-10T02:13:36.570Z,1014.01
2018-02-10T02:14:36.623Z,1013.97
2018-02-10T02:15:36.636Z,1013.96
2018-02-10T02:16:36.734Z,1013.95
2018-02-10T02:17:36.841Z,1013.93
2018-02-10T02:18:36.785Z,1013.95
2018-02-10T02:19:36.892Z,1013.92
2018-02-10T02:20:36.776Z,1013.96
2018-02-10T02:21:36.801Z,1013.98
2018-02-10T02:22:36.822Z,1013.97
2018-02-10T02:23:37.078Z,1013.97
2018-02-10T02:24:37.828Z,1013.87
2018-02-10T02:25:37.890Z,1013.87
2018-02-10T02:26:37.881Z,1013.88
2018-02-10T02:27:38.144Z,1013.95
2018-02-10T02:28:37.880Z,1013.92
2018-02-10T02:29:37.873Z,1013.9
2018-02-10T02:30:38.375Z,1013.86
2018-02-10T02:31:38.421Z,1013.87
2018-02-10T02:32:38.948Z,1013.87
2018-02-10T02:33:38.988Z,1013.85
2018-02-10T02:34:38.965Z,1013.81
2018-02-10T02:35:38.958Z,1013.89
2018-02-10T02:36:39.178Z,1013.85
2018-02-10T02:37:39.204Z,1013.82
2018-02-10T02:38:39.213Z,1013.83
2018-02-10T02:39:39.237Z,1013.8
2018-02-10T02:40:39.345Z,1013.81
2018-02-10T02:41:39.315Z,1013.79
2018-02-10T02:42:39.843Z,1013.76
2018-02-10T02:43:40.713Z,1013.78
2018-02-10T02:44:40.521Z,1013.78
2018-02-10T02:45:40.567Z,1013.76
2018-02-10T02:46:40.484Z,1013.75
2018-02-10T02:47:40.509Z,1013.74
2018-02-10T02:48:40.580Z,1013.73
2018-02-10T02:49:40.624Z,1013.71
2018-02-10T02:50:41.074Z,1013.69
2018-02-10T02:51:40.885Z,1013.73
2018-02-10T02:52:41.048Z,1013.68
2018-02-10T02:53:40.946Z,1013.74
2018-02-10T02:54:40.978Z,1013.71
2018-02-10T02:55:40.957Z,1013.73
2018-02-10T02:56:40.979Z,1013.72
2018-02-10T02:57:41.011Z,1013.73
2018-02-10T02:58:41.009Z,1013.68
2018-02-10T02:59:40.838Z,1013.73
2018-02-10T03:00:41.126Z,1013.74
2018-02-10T03:01:41.107Z,1013.75
2018-02-10T03:02:40.806Z,1013.75
2018-02-10T03:03:40.841Z,1013.76
2018-02-10T03:04:40.848Z,1013.82
2018-02-10T03:05:40.855Z,1013.76
2018-02-10T03:06:41.152Z,1013.78
2018-02-10T03:07:41.661Z,1013.72
2018-02-10T03:08:41.676Z,1013.7
2018-02-10T03:09:42.178Z,1013.78
2018-02-10T03:10:42.120Z,1013.72
2018-02-10T03:11:42.563Z,1013.7
2018-02-10T03:12:42.554Z,1013.71
2018-02-10T03:13:43.114Z,1013.72
2018-02-10T03:14:42.600Z,1013.74
2018-02-10T03:15:42.756Z,1013.7
2018-02-10T03:16:42.791Z,1013.69
2018-02-10T03:17:42.813Z,1013.68
2018-02-10T03:18:42.864Z,1013.68
2018-02-10T03:19:42.847Z,1013.69
2018-02-10T03:20:42.882Z,1013.68
2018-02-10T03:21:42.888Z,1013.69
2018-02-10T03:22:42.928Z,1013.65
2018-02-10T03:23:43.025Z,1013.67
2018-02-10T03:24:43.071Z,1013.66
2018-02-10T03:25:43.143Z,1013.66
2018-02-10T03:26:43.394Z,1013.69
2018-02-10T03:27:43.818Z,1013.68
2018-02-10T03:28:44.181Z,1013.69
2018-02-10T03:29:44.251Z,1013.67
2018-02-10T03:30:44.209Z,1013.65
2018-02-10T03:31:44.351Z,1013.65
2018-02-10T03:32:44.390Z,1013.67
2018-02-10T03:33:44.803Z,1013.71
2018-02-10T03:34:44.412Z,1013.62
2018-02-10T03:35:44.434Z,1013.65
2018-02-10T03:36:44.460Z,1013.67
2018-02-10T03:37:44.486Z,1013.65
2018-02-10T03:38:44.763Z,1013.66
2018-02-10T03:39:44.516Z,1013.74
2018-02-10T03:40:45.307Z,1013.7
2018-02-10T03:41:45.327Z,1013.68
2018-02-10T03:42:45.169Z,1013.73
2018-02-10T03:43:45.797Z,1013.7
2018-02-10T03:44:45.758Z,1013.67
2018-02-10T03:45:45.814Z,1013.69
2018-02-10T03:46:46.287Z,1013.71
2018-02-10T03:47:46.367Z,1013.7
2018-02-10T03:48:46.487Z,1013.72
2018-02-10T03:49:46.304Z,1013.7
2018-02-10T03:50:46.322Z,1013.72
2018-02-10T03:51:46.329Z,1013.7
2018-02-10T03:52:46.841Z,1013.67
2018-02-10T03:53:46.952Z,1013.67
2018-02-10T03:54:47.323Z,1013.7
2018-02-10T03:55:47.387Z,1013.73
2018-02-10T03:56:47.423Z,1013.68
2018-02-10T03:57:47.661Z,1013.72
2018-02-10T03:58:47.835Z,1013.7
2018-02-10T03:59:47.995Z,1013.71
2018-02-10T04:00:48.273Z,1013.73
2018-02-10T04:01:48.294Z,1013.77
2018-02-10T04:02:48.395Z,1013.73
2018-02-10T04:03:48.399Z,1013.74
2018-02-10T04:04:48.438Z,1013.78
2018-02-10T04:05:48.469Z,1013.76
2018-02-10T04:06:48.986Z,1013.79
2018-02-10T04:07:49.283Z,1013.75
2018-02-10T04:08:49.318Z,1013.74
2018-02-10T04:09:49.355Z,1013.73
2018-02-10T04:10:49.703Z,1013.72
2018-02-10T04:11:49.779Z,1013.73
2018-02-10T04:12:49.886Z,1013.75
2018-02-10T04:13:49.879Z,1013.73
2018-02-10T04:14:50.084Z,1013.77
2018-02-10T04:15:49.805Z,1013.76
2018-02-10T04:16:50.007Z,1013.78
2018-02-10T04:17:50.713Z,1013.74
2018-02-10T04:18:50.720Z,1013.76
2018-02-10T04:19:50.734Z,1013.74
2018-02-10T04:20:50.776Z,1013.8
2018-02-10T04:21:51.071Z,1013.78
2018-02-10T04:22:50.840Z,1013.78
2018-02-10T04:23:50.830Z,1013.8
2018-02-10T04:24:50.827Z,1013.74
2018-02-10T04:25:50.912Z,1013.76
2018-02-10T04:26:50.970Z,1013.73
2018-02-10T04:27:50.957Z,1013.74
2018-02-10T04:28:51.045Z,1013.74
2018-02-10T04:29:50.988Z,1013.71
2018-02-10T04:30:51.304Z,1013.71
2018-02-10T04:31:51.466Z,1013.69
2018-02-10T04:32:51.298Z,1013.72
2018-02-10T04:33:51.142Z,1013.68
2018-02-10T04:34:51.059Z,1013.68
2018-02-10T04:35:51.177Z,1013.73
2018-02-10T04:36:51.336Z,1013.64
2018-02-10T04:37:51.181Z,1013.7
2018-02-10T04:38:51.177Z,1013.66
2018-02-10T04:39:51.186Z,1013.61
2018-02-10T04:40:51.217Z,1013.6
2018-02-10T04:41:51.201Z,1013.6
2018-02-10T04:42:51.271Z,1013.64
2018-02-10T04:43:51.386Z,1013.61
2018-02-10T04:44:51.299Z,1013.63
2018-02-10T04:45:51.290Z,1013.64
2018-02-10T04:46:51.316Z,1013.61
2018-02-10T04:47:51.334Z,1013.63
2018-02-10T04:48:51.522Z,1013.62
2018-02-10T04:49:51.633Z,1013.7
2018-02-10T04:50:51.516Z,1013.68
2018-02-10T04:51:51.533Z,1013.69
2018-02-10T04:52:51.575Z,1013.7
2018-02-10T04:53:51.575Z,1013.72
2018-02-10T04:54:51.652Z,1013.78
2018-02-10T04:55:51.632Z,1013.69
2018-02-10T04:56:51.639Z,1013.73
2018-02-10T04:57:51.663Z,1013.7
2018-02-10T04:58:51.702Z,1013.71
2018-02-10T04:59:51.952Z,1013.74
2018-02-10T05:00:51.973Z,1013.68
2018-02-10T05:01:52.005Z,1013.76
2018-02-10T05:02:52.026Z,1013.74
2018-02-10T05:03:52.041Z,1013.73
2018-02-10T05:04:52.074Z,1013.68
2018-02-10T05:05:52.122Z,1013.67
2018-02-10T05:06:52.107Z,1013.67
2018-02-10T05:07:52.565Z,1013.7
2018-02-10T05:08:52.587Z,1013.67
2018-02-10T05:09:52.619Z,1013.74
2018-02-10T05:10:52.828Z,1013.74
2018-02-10T05:11:52.855Z,1013.76
2018-02-10T05:12:52.994Z,1013.74
2018-02-10T05:13:52.894Z,1013.74
2018-02-10T05:14:52.910Z,1013.78
2018-02-10T05:15:52.933Z,1013.78
2018-02-10T05:16:52.954Z,1013.78
2018-02-10T05:17:52.974Z,1013.78
2018-02-10T05:18:52.995Z,1013.77
2018-02-10T05:19:53.018Z,1013.79
2018-02-10T05:20:53.286Z,1013.78
2018-02-10T05:21:53.293Z,1013.78
2018-02-10T05:22:53.646Z,1013.75
2018-02-10T05:23:53.670Z,1013.8
2018-02-10T05:24:53.812Z,1013.83
2018-02-10T05:25:53.818Z,1013.76
2018-02-10T05:26:53.845Z,1013.78
2018-02-10T05:27:53.862Z,1013.78
2018-02-10T05:28:53.888Z,1013.77
2018-02-10T05:29:54.325Z,1013.78
2018-02-10T05:30:54.347Z,1013.75
2018-02-10T05:31:54.561Z,1013.76
2018-02-10T05:32:54.574Z,1013.75
2018-02-10T05:33:54.595Z,1013.76
2018-02-10T05:34:54.977Z,1013.77
2018-02-10T05:35:54.813Z,1013.81
2018-02-10T05:36:54.848Z,1013.83
2018-02-10T05:37:54.851Z,1013.79
2018-02-10T05:38:54.892Z,1013.82
2018-02-10T05:39:54.952Z,1013.85
2018-02-10T05:40:54.896Z,1013.86
2018-02-10T05:41:55.023Z,1013.85
2018-02-10T05:42:55.100Z,1013.82
2018-02-10T05:43:55.119Z,1013.84
2018-02-10T05:44:55.604Z,1013.8
2018-02-10T05:45:56.051Z,1013.84
2018-02-10T05:46:56.134Z,1013.87
2018-02-10T05:47:56.069Z,1013.87
2018-02-10T05:48:56.093Z,1013.88
2018-02-10T05:49:56.117Z,1013.86
2018-02-10T05:50:56.158Z,1013.85
2018-02-10T05:51:56.188Z,1013.88
2018-02-10T05:52:56.176Z,1013.88
2018-02-10T05:53:56.217Z,1013.89
2018-02-10T05:54:56.249Z,1013.92
2018-02-10T05:55:56.901Z,1013.9
2018-02-10T05:56:57.108Z,1013.85
2018-02-10T05:57:57.291Z,1013.9
2018-02-10T05:58:57.305Z,1013.91
2018-02-10T05:59:57.419Z,1013.89
2018-02-10T06:00:57.357Z,1013.91
2018-02-10T06:01:57.568Z,1013.95
2018-02-10T06:02:58.029Z,1013.91
2018-02-10T06:03:58.493Z,1013.95
2018-02-10T06:04:58.781Z,1013.93
2018-02-10T06:05:58.789Z,1013.94
2018-02-10T06:06:59.002Z,1013.92
2018-02-10T06:07:59.022Z,1013.98
2018-02-10T06:08:59.045Z,1013.97
2018-02-10T06:09:59.739Z,1013.97
2018-02-10T06:10:59.750Z,1014
2018-02-10T06:11:59.764Z,1014.05
2018-02-10T06:13:00.062Z,1014.07
2018-02-10T06:14:00.138Z,1014.03
2018-02-10T06:15:00.175Z,1014.05
2018-02-10T06:16:00.128Z,1014.11
2018-02-10T06:17:00.185Z,1014.12
2018-02-10T06:18:00.232Z,1014.12
2018-02-10T06:19:00.235Z,1014.13
2018-02-10T06:20:00.389Z,1014.16
2018-02-10T06:21:00.269Z,1014.19
2018-02-10T06:22:00.315Z,1014.19
2018-02-10T06:23:00.352Z,1014.18
2018-02-10T06:24:00.647Z,1014.2
2018-02-10T06:25:00.468Z,1014.17
2018-02-10T06:26:00.416Z,1014.15
2018-02-10T06:27:00.429Z,1014.15
2018-02-10T06:28:00.460Z,1014.15
2018-02-10T06:29:00.421Z,1014.19
2018-02-10T06:30:00.833Z,1014.14
2018-02-10T06:31:00.521Z,1014.19
2018-02-10T06:32:00.538Z,1014.22
2018-02-10T06:33:00.600Z,1014.17
2018-02-10T06:34:00.581Z,1014.18
2018-02-10T06:35:00.661Z,1014.14
2018-02-10T06:36:00.609Z,1014.15
2018-02-10T06:37:00.628Z,1014.17
2018-02-10T06:38:00.973Z,1014.21
2018-02-10T06:39:00.988Z,1014.2
2018-02-10T06:40:01.014Z,1014.23
2018-02-10T06:41:01.237Z,1014.28
2018-02-10T06:42:01.497Z,1014.33
2018-02-10T06:43:01.532Z,1014.33
2018-02-10T06:44:01.899Z,1014.33
2018-02-10T06:45:01.946Z,1014.35
2018-02-10T06:46:02.284Z,1014.32
2018-02-10T06:47:02.361Z,1014.3
2018-02-10T06:48:02.943Z,1014.29
2018-02-10T06:49:02.969Z,1014.33
2018-02-10T06:50:02.991Z,1014.33
2018-02-10T06:51:03.203Z,1014.34
2018-02-10T06:52:03.261Z,1014.3
2018-02-10T06:53:03.247Z,1014.36
2018-02-10T06:54:03.324Z,1014.31
2018-02-10T06:55:03.521Z,1014.31
2018-02-10T06:56:03.778Z,1014.36
2018-02-10T06:57:04.059Z,1014.36
2018-02-10T06:58:04.509Z,1014.31
2018-02-10T06:59:04.730Z,1014.36
2018-02-10T07:01:05.191Z,1014.39
2018-02-10T07:02:05.266Z,1014.39
2018-02-10T07:03:05.225Z,1014.41
2018-02-10T07:04:05.507Z,1014.36
2018-02-10T07:05:05.535Z,1014.35
2018-02-10T07:06:05.982Z,1014.37
2018-02-10T07:07:06.146Z,1014.41
2018-02-10T07:08:06.174Z,1014.39
2018-02-10T07:09:06.190Z,1014.41
2018-02-10T07:10:06.220Z,1014.41
2018-02-10T07:11:06.236Z,1014.42
2018-02-10T07:12:06.256Z,1014.46
2018-02-10T07:13:06.399Z,1014.45
2018-02-10T07:14:06.412Z,1014.42
2018-02-10T07:15:06.431Z,1014.51
2018-02-10T07:16:06.469Z,1014.43
2018-02-10T07:17:06.733Z,1014.41
2018-02-10T07:18:06.761Z,1014.48
2018-02-10T07:19:06.996Z,1014.46
2018-02-10T07:20:07.204Z,1014.5
2018-02-10T07:21:07.348Z,1014.51
2018-02-10T07:22:07.491Z,1014.53
2018-02-10T07:23:07.506Z,1014.52
2018-02-10T07:24:07.523Z,1014.51
2018-02-10T07:25:07.741Z,1014.52
2018-02-10T07:26:07.793Z,1014.53
2018-02-10T07:27:07.791Z,1014.5
2018-02-10T07:28:08.139Z,1014.5
2018-02-10T07:29:08.168Z,1014.49
2018-02-10T07:30:08.193Z,1014.53
2018-02-10T07:31:08.213Z,1014.5
2018-02-10T07:32:08.236Z,1014.47
2018-02-10T07:33:08.390Z,1014.49
2018-02-10T07:34:08.480Z,1014.48
2018-02-10T07:35:08.709Z,1014.47
2018-02-10T07:36:08.622Z,1014.45
2018-02-10T07:37:08.645Z,1014.45
2018-02-10T07:38:08.664Z,1014.47
2018-02-10T07:39:08.803Z,1014.5
2018-02-10T07:40:08.818Z,1014.46
2018-02-10T07:41:08.844Z,1014.48
2018-02-10T07:42:08.875Z,1014.49
2018-02-10T07:43:08.885Z,1014.52
2018-02-10T07:44:09.050Z,1014.52
2018-02-10T07:45:09.201Z,1014.52
2018-02-10T07:46:09.318Z,1014.55
2018-02-10T07:47:09.353Z,1014.48
2018-02-10T07:48:09.612Z,1014.52
2018-02-10T07:49:10.031Z,1014.59
2018-02-10T07:50:10.440Z,1014.56
2018-02-10T07:51:10.454Z,1014.58
2018-02-10T07:52:10.474Z,1014.56
2018-02-10T07:53:10.505Z,1014.54
2018-02-10T07:54:10.934Z,1014.6
2018-02-10T07:55:10.957Z,1014.54
2018-02-10T07:56:11.353Z,1014.49
2018-02-10T07:57:11.666Z,1014.59
2018-02-10T07:58:11.325Z,1014.59
2018-02-10T07:59:11.448Z,1014.54
2018-02-10T08:00:11.463Z,1014.53
2018-02-10T08:01:11.872Z,1014.53
2018-02-10T08:02:11.933Z,1014.56
2018-02-10T08:03:11.905Z,1014.56
2018-02-10T08:04:12.232Z,1014.63
2018-02-10T08:05:12.771Z,1014.63
2018-02-10T08:06:12.916Z,1014.62
2018-02-10T08:07:13.109Z,1014.65
2018-02-10T08:08:13.235Z,1014.69
2018-02-10T08:09:13.516Z,1014.61
2018-02-10T08:10:13.634Z,1014.6
2018-02-10T08:11:13.659Z,1014.63
2018-02-10T08:12:13.687Z,1014.63
2018-02-10T08:13:13.705Z,1014.63
2018-02-10T08:14:13.726Z,1014.59
2018-02-10T08:15:13.798Z,1014.62
2018-02-10T08:16:13.804Z,1014.62
2018-02-10T08:17:13.787Z,1014.58
2018-02-10T08:18:13.806Z,1014.59
2018-02-10T08:19:13.828Z,1014.63
2018-02-10T08:20:14.126Z,1014.67
2018-02-10T08:21:14.051Z,1014.63
2018-02-10T08:22:14.238Z,1014.63
2018-02-10T08:23:14.604Z,1014.66
2018-02-10T08:24:14.632Z,1014.61
2018-02-10T08:25:15.005Z,1014.65
2018-02-10T08:26:15.014Z,1014.65
2018-02-10T08:27:15.032Z,1014.67
2018-02-10T08:28:15.070Z,1014.67
2018-02-10T08:29:15.463Z,1014.66
2018-02-10T08:30:15.469Z,1014.64
2018-02-10T08:31:15.896Z,1014.69
2018-02-10T08:32:15.942Z,1014.67
2018-02-10T08:33:16.322Z,1014.61
2018-02-10T08:34:16.346Z,1014.65
2018-02-10T08:35:16.745Z,1014.64
2018-02-10T08:36:16.808Z,1014.62
2018-02-10T08:37:16.832Z,1014.62
2018-02-10T08:38:17.273Z,1014.61
2018-02-10T08:39:17.186Z,1014.62
2018-02-10T08:40:17.215Z,1014.57
2018-02-10T08:41:17.580Z,1014.64
2018-02-10T08:42:17.662Z,1014.57
2018-02-10T08:43:17.697Z,1014.59
2018-02-10T08:44:17.712Z,1014.62
2018-02-10T08:45:17.731Z,1014.58
2018-02-10T08:46:17.760Z,1014.58
2018-02-10T08:47:17.931Z,1014.58
2018-02-10T08:48:18.004Z,1014.59
2018-02-10T08:49:18.022Z,1014.56
2018-02-10T08:50:18.043Z,1014.5
2018-02-10T08:51:18.169Z,1014.54
2018-02-10T08:52:18.188Z,1014.56
2018-02-10T08:53:18.215Z,1014.55
2018-02-10T08:54:18.339Z,1014.52
2018-02-10T08:55:18.371Z,1014.51
2018-02-10T08:56:18.569Z,1014.49
2018-02-10T08:57:18.844Z,1014.49
2018-02-10T08:58:18.999Z,1014.49
2018-02-10T08:59:19.391Z,1014.43
2018-02-10T09:00:19.417Z,1014.44
2018-02-10T09:01:19.429Z,1014.48
2018-02-10T09:02:19.453Z,1014.43
2018-02-10T09:03:19.471Z,1014.49
2018-02-10T09:04:19.847Z,1014.48
2018-02-10T09:05:20.229Z,1014.43
2018-02-10T09:06:20.240Z,1014.46
2018-02-10T09:07:20.360Z,1014.48
2018-02-10T09:08:20.736Z,1014.5
2018-02-10T09:09:21.241Z,1014.53
2018-02-10T09:10:21.648Z,1014.53
2018-02-10T09:11:21.631Z,1014.48
2018-02-10T09:12:21.654Z,1014.52
2018-02-10T09:13:21.875Z,1014.54
2018-02-10T09:14:22.000Z,1014.58
2018-02-10T09:15:22.022Z,1014.61
2018-02-10T09:16:22.377Z,1014.61
2018-02-10T09:17:22.562Z,1014.59
2018-02-10T09:18:22.438Z,1014.56
2018-02-10T09:19:22.447Z,1014.59
2018-02-10T09:20:22.893Z,1014.58
2018-02-10T09:21:22.911Z,1014.57
2018-02-10T09:22:22.956Z,1014.55
2018-02-10T09:23:22.959Z,1014.55
2018-02-10T09:24:23.166Z,1014.59
2018-02-10T09:25:23.535Z,1014.61
2018-02-10T09:26:23.581Z,1014.65
2018-02-10T09:27:23.614Z,1014.61
2018-02-10T09:28:23.980Z,1014.64
2018-02-10T09:29:24.010Z,1014.6
2018-02-10T09:30:24.144Z,1014.63
2018-02-10T09:31:24.731Z,1014.68
2018-02-10T09:32:24.653Z,1014.66
2018-02-10T09:33:24.810Z,1014.66
2018-02-10T09:34:25.066Z,1014.64
2018-02-10T09:35:25.110Z,1014.61
2018-02-10T09:36:25.207Z,1014.63
2018-02-10T09:37:25.238Z,1014.6
2018-02-10T09:38:25.265Z,1014.65
2018-02-10T09:39:25.290Z,1014.59
2018-02-10T09:40:25.300Z,1014.61
2018-02-10T09:41:25.321Z,1014.62
2018-02-10T09:42:25.492Z,1014.62
2018-02-10T09:43:25.518Z,1014.61
2018-02-10T09:44:25.551Z,1014.63
2018-02-10T09:45:25.621Z,1014.59
2018-02-10T09:46:25.579Z,1014.62
2018-02-10T09:47:25.627Z,1014.66
2018-02-10T09:48:25.826Z,1014.61
2018-02-10T09:49:25.989Z,1014.58
2018-02-10T09:50:26.030Z,1014.56
2018-02-10T09:51:26.144Z,1014.5
2018-02-10T09:52:26.361Z,1014.52
2018-02-10T09:53:26.435Z,1014.53
2018-02-10T09:54:26.444Z,1014.5
2018-02-10T09:55:26.462Z,1014.51
2018-02-10T09:56:26.505Z,1014.45
2018-02-10T09:57:26.527Z,1014.43
2018-02-10T09:58:26.548Z,1014.42
2018-02-10T09:59:26.573Z,1014.41
2018-02-10T10:00:26.577Z,1014.44
2018-02-10T10:01:26.599Z,1014.4
2018-02-10T10:02:26.751Z,1014.39
2018-02-10T10:03:27.112Z,1014.43
2018-02-10T10:04:27.495Z,1014.38
2018-02-10T10:05:27.676Z,1014.4
2018-02-10T10:06:28.054Z,1014.48
2018-02-10T10:07:28.086Z,1014.45
2018-02-10T10:08:28.162Z,1014.45
2018-02-10T10:09:28.400Z,1014.45
2018-02-10T10:10:28.156Z,1014.42
2018-02-10T10:11:28.532Z,1014.39
2018-02-10T10:12:28.560Z,1014.35
2018-02-10T10:13:28.580Z,1014.41
2018-02-10T10:14:28.687Z,1014.37
2018-02-10T10:15:28.728Z,1014.4
2018-02-10T10:16:28.786Z,1014.38
2018-02-10T10:17:29.195Z,1014.34
2018-02-10T10:18:29.220Z,1014.38
2018-02-10T10:19:29.331Z,1014.36
2018-02-10T10:20:29.350Z,1014.3
2018-02-10T10:21:29.373Z,1014.4
2018-02-10T10:22:29.769Z,1014.38
2018-02-10T10:23:29.789Z,1014.37
2018-02-10T10:24:29.815Z,1014.37
2018-02-10T10:25:30.210Z,1014.36
2018-02-10T10:26:30.570Z,1014.38
2018-02-10T10:27:30.583Z,1014.37
2018-02-10T10:28:30.607Z,1014.36
2018-02-10T10:29:30.710Z,1014.39
2018-02-10T10:30:31.061Z,1014.31
2018-02-10T10:31:31.446Z,1014.29
2018-02-10T10:32:31.579Z,1014.34
2018-02-10T10:33:31.612Z,1014.36
2018-02-10T10:34:31.892Z,1014.4
2018-02-10T10:35:32.050Z,1014.38
2018-02-10T10:36:32.071Z,1014.36
2018-02-10T10:37:32.106Z,1014.35
2018-02-10T10:38:32.151Z,1014.32
2018-02-10T10:39:32.140Z,1014.38
2018-02-10T10:40:32.436Z,1014.4
2018-02-10T10:41:32.823Z,1014.34
2018-02-10T10:42:33.226Z,1014.42
2018-02-10T10:43:33.255Z,1014.4
2018-02-10T10:44:33.360Z,1014.37
2018-02-10T10:45:33.739Z,1014.36
2018-02-10T10:46:33.746Z,1014.37
2018-02-10T10:47:33.813Z,1014.33
2018-02-10T10:48:33.817Z,1014.35
2018-02-10T10:49:33.820Z,1014.29
2018-02-10T10:50:34.017Z,1014.23
2018-02-10T10:51:34.391Z,1014.27
2018-02-10T10:52:34.411Z,1014.24
2018-02-10T10:53:34.440Z,1014.17
2018-02-10T10:54:34.456Z,1014.18
2018-02-10T10:55:34.594Z,1014.17
2018-02-10T10:56:34.981Z,1014.21
2018-02-10T10:57:35.364Z,1014.23
2018-02-10T10:58:35.388Z,1014.23
2018-02-10T10:59:35.555Z,1014.23
2018-02-10T11:00:35.645Z,1014.25
2018-02-10T11:01:35.673Z,1014.22
2018-02-10T11:02:35.688Z,1014.21
2018-02-10T11:03:35.862Z,1014.2
2018-02-10T11:04:35.701Z,1014.18
2018-02-10T11:05:35.702Z,1014.15
2018-02-10T11:06:35.705Z,1014.05
2018-02-10T11:07:35.894Z,1014.09
2018-02-10T11:08:35.924Z,1014.03
2018-02-10T11:09:35.949Z,1014.08
2018-02-10T11:10:35.964Z,1014
2018-02-10T11:11:36.064Z,1014.03
2018-02-10T11:12:36.088Z,1014.01
2018-02-10T11:13:36.546Z,1014.01
2018-02-10T11:14:36.568Z,1013.95
2018-02-10T11:15:36.729Z,1013.96
2018-02-10T11:16:36.837Z,1013.94
2018-02-10T11:17:36.842Z,1013.92
2018-02-10T11:18:37.185Z,1013.86
2018-02-10T11:19:37.198Z,1013.91
2018-02-10T11:20:37.230Z,1013.92
2018-02-10T11:21:37.265Z,1013.9
2018-02-10T11:22:37.377Z,1013.9
2018-02-10T11:23:37.598Z,1013.86
2018-02-10T11:24:37.542Z,1013.9
2018-02-10T11:25:38.007Z,1013.84
2018-02-10T11:26:38.027Z,1013.85
2018-02-10T11:27:38.538Z,1013.82
2018-02-10T11:28:38.459Z,1013.8
2018-02-10T11:29:38.655Z,1013.82
2018-02-10T11:30:38.917Z,1013.82
2018-02-10T11:31:38.899Z,1013.82
2018-02-10T11:32:38.940Z,1013.75
2018-02-10T11:33:39.334Z,1013.76
2018-02-10T11:34:39.669Z,1013.71
2018-02-10T11:35:39.707Z,1013.76
2018-02-10T11:36:40.095Z,1013.66
2018-02-10T11:37:40.241Z,1013.66
2018-02-10T11:38:40.670Z,1013.62
2018-02-10T11:39:40.717Z,1013.64
2018-02-10T11:40:40.736Z,1013.55
2018-02-10T11:41:40.743Z,1013.62
2018-02-10T11:42:40.796Z,1013.58
2018-02-10T11:43:40.925Z,1013.56
2018-02-10T11:44:40.810Z,1013.58
2018-02-10T11:45:41.317Z,1013.61
2018-02-10T11:46:41.295Z,1013.6
2018-02-10T11:47:41.340Z,1013.56
2018-02-10T11:48:41.508Z,1013.62
2018-02-10T11:49:41.785Z,1013.62
2018-02-10T11:50:41.828Z,1013.63
2018-02-10T11:51:41.792Z,1013.6
2018-02-10T11:52:41.834Z,1013.64
2018-02-10T11:53:42.206Z,1013.57
2018-02-10T11:54:42.440Z,1013.6
2018-02-10T11:55:42.857Z,1013.54
2018-02-10T11:56:43.236Z,1013.57
2018-02-10T11:57:43.252Z,1013.5
2018-02-10T11:58:43.268Z,1013.55
2018-02-10T11:59:43.303Z,1013.51
2018-02-10T12:00:43.330Z,1013.45
2018-02-10T12:01:43.355Z,1013.44
2018-02-10T12:02:43.866Z,1013.41
2018-02-10T12:03:44.032Z,1013.42
2018-02-10T12:04:44.154Z,1013.36
2018-02-10T12:05:44.263Z,1013.39
2018-02-10T12:06:44.629Z,1013.36
2018-02-10T12:07:44.766Z,1013.29
2018-02-10T12:08:45.062Z,1013.27
2018-02-10T12:09:45.066Z,1013.3
2018-02-10T12:10:45.107Z,1013.32
2018-02-10T12:11:45.296Z,1013.33